Time;durP1;ratioP1;P1;durP2;ratioP2;P2;SDS_P1;SDS_P2;PMS_P1;PMS_P2;Temp;Humidity;BMP_temperature;BMP_pressure;BME280_temperature;BME280_humidity;BME280_pressure;Samples;Min_cycle;Max_cycle;Signal;HPM_P1;HPM_P2
2021/06/10 00:00:18;;;;;;;7.10;4.50;;;;;;;15.43;84.59;98963.27;1735129;82;21064;-73
2021/06/10 00:02:47;;;;;;;8.23;4.25;;;;;;;15.44;84.58;98964.05;1727654;82;21031;-72
2021/06/10 00:05:18;;;;;;;7.05;4.78;;;;;;;15.43;84.40;98957.72;1734934;82;21096;-72
2021/06/10 00:07:45;;;;;;;7.05;5.12;;;;;;;15.46;84.26;98958.94;1734191;82;21078;-72
2021/06/10 00:10:14;;;;;;;8.38;4.83;;;;;;;15.42;84.02;98962.25;1735169;82;21112;-72
2021/06/10 00:12:47;;;;;;;7.85;4.33;;;;;;;15.36;84.31;98961.73;1728702;82;21009;-72
2021/06/10 00:15:20;;;;;;;10.10;4.72;;;;;;;15.36;84.22;98955.38;1735051;82;21024;-73
2021/06/10 00:17:47;;;;;;;7.70;5.15;;;;;;;15.35;84.18;98955.98;1749300;81;20998;-73
2021/06/10 00:20:18;;;;;;;4.58;4.15;;;;;;;15.32;84.21;98953.33;1738534;81;21020;-72
2021/06/10 00:22:45;;;;;;;11.12;5.00;;;;;;;15.22;84.48;98953.92;1728334;82;21178;-73
2021/06/10 00:25:13;;;;;;;8.08;4.92;;;;;;;15.14;85.00;98942.45;1728432;81;21039;-73
2021/06/10 00:27:42;;;;;;;7.78;4.90;;;;;;;15.18;85.06;98945.52;1753914;80;21031;-74
2021/06/10 00:30:15;;;;;;;6.42;4.80;;;;;;;15.14;84.94;98946.63;1753711;81;21126;-72
2021/06/10 00:32:46;;;;;;;5.33;4.33;;;;;;;15.00;85.28;98945.16;1749263;81;20996;-73
2021/06/10 00:35:16;;;;;;;8.13;4.72;;;;;;;14.87;85.72;98943.12;1732777;81;21148;-72
2021/06/10 00:37:47;;;;;;;7.75;4.80;;;;;;;14.78;86.15;98941.91;1739198;82;21075;-72
2021/06/10 00:40:15;;;;;;;12.10;4.67;;;;;;;14.75;86.67;98943.20;1735931;82;20988;-72
2021/06/10 00:42:50;;;;;;;6.40;3.70;;;;;;;14.82;86.84;98941.41;1730929;82;21005;-72
2021/06/10 00:45:20;;;;;;;7.35;4.12;;;;;;;14.93;86.39;98947.77;1726291;82;21056;-73
2021/06/10 00:47:50;;;;;;;7.92;4.30;;;;;;;15.01;85.92;98944.59;1735880;82;21795;-73
2021/06/10 00:50:35;;;;;;;6.83;3.67;;;;;;;15.08;85.51;98943.35;1735715;82;21545;-73
2021/06/10 00:53:02;;;;;;;8.63;4.55;;;;;;;15.11;84.77;98938.45;1713907;82;21035;-72
2021/06/10 00:55:29;;;;;;;8.65;4.67;;;;;;;15.08;84.80;98941.36;1697291;82;21024;-72
2021/06/10 00:58:00;;;;;;;5.67;4.40;;;;;;;15.09;84.80;98940.21;1714247;81;21046;-73
2021/06/10 01:00:27;;;;;;;8.30;4.58;;;;;;;15.06;84.82;98940.92;1735385;82;21136;-74
2021/06/10 01:02:53;;;;;;;5.12;4.35;;;;;;;15.01;84.90;98937.05;1712089;82;21028;-73
2021/06/10 01:05:20;;;;;;;9.35;4.92;;;;;;;14.95;85.18;98941.28;1724855;81;21011;-72
2021/06/10 01:08:02;;;;;;;8.80;4.28;;;;;;;14.89;85.48;98933.86;1733821;82;21008;-72
2021/06/10 01:11:00;;;;;;;12.45;4.58;;;;;;;14.94;85.44;98929.98;1736182;82;21020;-72
2021/06/10 01:13:54;;;;;;;4.60;3.98;;;;;;;14.98;84.83;98926.69;1721838;82;21544;-73
2021/06/10 01:16:22;;;;;;;8.78;4.67;;;;;;;15.02;84.18;98917.05;1728949;81;20999;-73
2021/06/10 01:18:50;;;;;;;10.95;4.80;;;;;;;15.00;83.80;98921.58;1732800;81;21079;-72
2021/06/10 01:21:17;;;;;;;7.33;4.28;;;;;;;14.96;83.79;98919.34;1737596;82;21072;-73
2021/06/10 01:24:08;;;;;;;12.20;4.70;;;;;;;14.93;83.95;98922.23;1735617;82;21033;-73
2021/06/10 01:27:05;;;;;;;10.45;4.37;;;;;;;14.96;83.96;98925.66;1735875;82;21505;-73
2021/06/10 01:29:32;;;;;;;6.50;4.03;;;;;;;14.99;83.73;98919.98;1737622;82;21012;-73
2021/06/10 01:32:01;;;;;;;5.97;4.37;;;;;;;14.99;83.54;98929.70;1737559;82;21044;-72
2021/06/10 01:34:31;;;;;;;5.25;4.65;;;;;;;14.93;83.93;98925.59;1728386;81;21082;-72
2021/06/10 01:37:04;;;;;;;7.20;5.35;;;;;;;14.91;84.07;98923.18;1719658;83;21083;-72
2021/06/10 01:39:32;;;;;;;6.05;5.40;;;;;;;14.89;84.15;98931.66;1715871;83;21168;-71
2021/06/10 01:41:59;;;;;;;15.05;5.45;;;;;;;14.90;84.51;98936.03;1719240;83;21028;-72
2021/06/10 01:44:25;;;;;;;7.80;4.42;;;;;;;14.94;84.34;98936.92;1719729;83;21258;-72
2021/06/10 01:46:52;;;;;;;11.30;4.45;;;;;;;14.99;84.17;98939.98;1719797;81;21028;-72
2021/06/10 01:49:22;;;;;;;8.68;4.08;;;;;;;15.02;83.82;98946.99;1710382;83;21035;-72
2021/06/10 01:51:52;;;;;;;6.80;4.47;;;;;;;15.06;83.59;98941.52;1723193;82;21558;-72
2021/06/10 01:54:18;;;;;;;5.75;4.42;;;;;;;15.06;83.31;98935.38;1662915;82;21065;-73
2021/06/10 01:56:47;;;;;;;6.85;4.78;;;;;;;15.03;83.33;98942.26;1714333;81;21035;-72
2021/06/10 01:59:14;;;;;;;9.43;5.08;;;;;;;15.02;83.51;98944.80;1710350;83;21040;-72
2021/06/10 02:01:42;;;;;;;7.97;4.62;;;;;;;15.00;83.66;98943.77;1662247;83;21032;-71
2021/06/10 02:04:11;;;;;;;6.28;4.60;;;;;;;15.01;83.74;98941.81;1709153;83;21581;-72
2021/06/10 02:06:41;;;;;;;8.43;5.15;;;;;;;15.02;84.07;98937.28;1712049;83;20984;-72
2021/06/10 02:09:09;;;;;;;5.35;4.30;;;;;;;15.05;84.21;98932.39;1713070;83;21075;-72
2021/06/10 02:11:37;;;;;;;7.92;5.60;;;;;;;15.07;83.96;98932.83;1710556;83;21515;-71
2021/06/10 02:14:10;;;;;;;7.28;5.05;;;;;;;15.05;84.13;98937.12;1692725;83;21044;-72
2021/06/10 02:16:40;;;;;;;11.22;5.12;;;;;;;15.01;84.54;98939.03;1712271;83;21130;-72
2021/06/10 02:19:06;;;;;;;6.80;5.28;;;;;;;14.98;85.05;98932.23;1710093;83;21548;-72
2021/06/10 02:21:35;;;;;;;12.10;6.70;;;;;;;15.02;85.43;98935.09;1714918;83;21036;-72
2021/06/10 02:24:02;;;;;;;6.90;4.92;;;;;;;15.05;85.36;98929.61;1710852;83;21039;-73
2021/06/10 02:26:30;;;;;;;9.63;5.17;;;;;;;15.01;85.70;98931.50;1712392;83;21060;-72
2021/06/10 02:28:56;;;;;;;12.00;5.85;;;;;;;15.02;86.03;98928.96;1710858;83;21532;-71
2021/06/10 02:31:22;;;;;;;8.20;6.47;;;;;;;15.03;86.24;98934.72;1705789;81;21056;-72
2021/06/10 02:33:50;;;;;;;8.65;5.72;;;;;;;15.01;86.58;98932.10;1704469;83;21042;-72
2021/06/10 02:36:18;;;;;;;8.58;5.58;;;;;;;15.01;86.97;98934.87;1726631;81;21013;-73
2021/06/10 02:38:55;;;;;;;8.95;5.12;;;;;;;14.99;87.23;98935.24;1741496;82;21544;-71
2021/06/10 02:41:26;;;;;;;7.83;5.30;;;;;;;15.03;87.64;98938.88;1744853;82;21169;-72
2021/06/10 02:43:53;;;;;;;10.10;5.72;;;;;;;15.08;87.67;98939.97;1734795;81;21122;-72
2021/06/10 02:46:19;;;;;;;10.30;6.12;;;;;;;15.08;87.85;98935.81;1733514;82;21079;-73
2021/06/10 02:48:48;;;;;;;7.35;6.40;;;;;;;15.06;88.18;98937.36;1718485;82;21048;-72
2021/06/10 02:51:18;;;;;;;6.85;5.80;;;;;;;15.03;88.51;98945.03;1717773;82;21100;-71
2021/06/10 02:53:52;;;;;;;6.80;6.10;;;;;;;15.02;88.90;98946.99;1749014;81;21474;-71
2021/06/10 02:56:19;;;;;;;10.00;6.35;;;;;;;15.06;89.17;98938.14;1707951;81;21512;-70
2021/06/10 02:58:49;;;;;;;6.65;6.03;;;;;;;15.09;89.19;98933.28;1749694;80;21015;-72
2021/06/10 03:01:16;;;;;;;8.48;6.50;;;;;;;15.13;89.26;98937.48;1750513;81;21079;-73
2021/06/10 03:03:44;;;;;;;8.50;6.92;;;;;;;15.10;89.20;98935.45;1738457;81;21479;-73
2021/06/10 03:06:12;;;;;;;9.48;6.40;;;;;;;15.11;89.50;98930.71;1737814;81;21205;-71
2021/06/10 03:08:39;;;;;;;15.08;6.37;;;;;;;15.12;89.53;98932.30;1733933;81;21000;-72
2021/06/10 03:11:07;;;;;;;9.45;6.42;;;;;;;15.14;89.63;98930.78;1751959;81;21011;-72
2021/06/10 03:13:34;;;;;;;6.47;5.78;;;;;;;15.17;89.67;98927.85;1750214;81;21074;-71
2021/06/10 03:16:01;;;;;;;8.08;6.55;;;;;;;15.18;89.70;98927.48;1752321;80;21043;-72
2021/06/10 03:18:28;;;;;;;9.60;6.37;;;;;;;15.20;89.83;98936.25;1751652;81;21496;-72
2021/06/10 03:20:59;;;;;;;7.42;6.03;;;;;;;15.22;89.88;98934.50;1752232;79;21066;-72
2021/06/10 03:23:27;;;;;;;8.90;6.78;;;;;;;15.25;89.85;98926.82;1728641;81;21016;-72
2021/06/10 03:25:53;;;;;;;8.88;6.58;;;;;;;15.25;89.90;98933.76;1752108;81;21081;-72
2021/06/10 03:28:22;;;;;;;12.80;5.65;;;;;;;15.25;90.01;98929.59;1752510;79;21003;-72
2021/06/10 03:30:51;;;;;;;11.10;6.28;;;;;;;15.27;90.18;98927.27;1749675;81;21013;-73
2021/06/10 03:33:20;;;;;;;8.73;6.80;;;;;;;15.32;90.17;98938.64;1751905;81;20985;-72
2021/06/10 03:35:48;;;;;;;8.55;6.90;;;;;;;15.30;90.09;98933.47;1746198;80;21068;-72
2021/06/10 03:38:17;;;;;;;9.95;6.78;;;;;;;15.24;90.01;98934.13;1735511;82;21008;-71
2021/06/10 03:40:47;;;;;;;11.45;6.97;;;;;;;15.23;90.40;98936.12;1735351;82;20969;-72
2021/06/10 03:43:16;;;;;;;10.30;7.12;;;;;;;15.28;90.38;98926.69;1735342;82;21636;-72
2021/06/10 03:45:45;;;;;;;10.95;6.90;;;;;;;15.28;90.39;98933.63;1735342;82;21064;-71
2021/06/10 03:48:12;;;;;;;11.22;6.95;;;;;;;15.32;90.49;98934.48;1735116;82;20985;-72
2021/06/10 03:50:39;;;;;;;8.50;6.62;;;;;;;15.38;90.55;98930.84;1735372;82;21095;-73
2021/06/10 03:53:06;;;;;;;12.07;7.10;;;;;;;15.43;90.48;98933.31;1735500;82;21009;-72
2021/06/10 03:55:35;;;;;;;9.00;7.17;;;;;;;15.45;90.40;98937.34;1734148;82;21107;-72
2021/06/10 03:58:02;;;;;;;10.98;7.00;;;;;;;15.49;90.37;98936.00;1735370;82;21016;-72
2021/06/10 04:00:29;;;;;;;11.95;7.03;;;;;;;15.53;90.30;98941.05;1735391;82;21072;-73
2021/06/10 04:02:58;;;;;;;12.25;6.83;;;;;;;15.60;90.37;98940.38;1735271;82;21052;-72
2021/06/10 04:05:26;;;;;;;9.70;7.08;;;;;;;15.67;90.36;98937.73;1735664;82;21052;-73
2021/06/10 04:07:57;;;;;;;13.05;7.05;;;;;;;15.76;90.28;98934.69;1735349;82;21253;-71
2021/06/10 04:10:29;;;;;;;7.85;6.42;;;;;;;15.85;90.13;98934.45;1732339;82;21039;-72
2021/06/10 04:12:56;;;;;;;10.20;7.58;;;;;;;15.89;89.52;98933.94;1735302;82;21496;-71
2021/06/10 04:15:24;;;;;;;10.65;7.15;;;;;;;15.88;89.69;98932.92;1735237;82;20977;-72
2021/06/10 04:17:53;;;;;;;7.20;6.60;;;;;;;15.96;89.84;98924.92;1735297;82;21076;-72
2021/06/10 04:20:19;;;;;;;19.55;7.25;;;;;;;16.07;90.02;98934.84;1735422;82;21140;-72
2021/06/10 04:22:47;;;;;;;13.28;7.35;;;;;;;16.21;90.06;98927.91;1735296;82;21067;-73
2021/06/10 04:25:14;;;;;;;9.85;6.87;;;;;;;16.36;89.73;98928.95;1735301;82;21047;-73
2021/06/10 04:27:40;;;;;;;10.72;7.80;;;;;;;16.50;89.77;98936.10;1705465;82;21068;-72
2021/06/10 04:30:11;;;;;;;7.28;6.58;;;;;;;16.66;89.36;98937.91;1735534;82;21040;-72
2021/06/10 04:32:45;;;;;;;8.05;7.30;;;;;;;16.74;88.83;98934.63;1735577;82;21180;-72
2021/06/10 04:35:14;;;;;;;11.78;7.83;;;;;;;16.77;87.48;98942.22;1737700;80;21079;-73
2021/06/10 04:37:42;;;;;;;8.95;6.75;;;;;;;16.73;86.88;98938.60;1755821;81;21532;-73
2021/06/10 04:40:11;;;;;;;13.78;7.28;;;;;;;16.77;87.32;98941.64;1730108;81;21067;-73
2021/06/10 04:42:37;;;;;;;11.20;7.20;;;;;;;16.84;87.12;98938.15;1759761;81;21576;-73
2021/06/10 04:45:07;;;;;;;7.25;6.55;;;;;;;16.95;87.13;98938.88;1754089;81;21148;-72
2021/06/10 04:47:36;;;;;;;7.65;6.85;;;;;;;17.03;86.42;98939.99;1730765;81;21043;-74
2021/06/10 04:50:04;;;;;;;9.68;7.22;;;;;;;17.08;85.93;98938.84;1750852;81;21035;-74
2021/06/10 04:52:31;;;;;;;11.65;7.00;;;;;;;17.14;85.83;98939.36;1754083;79;20964;-74
2021/06/10 04:54:58;;;;;;;9.68;7.85;;;;;;;17.23;85.55;98945.41;1754469;81;21071;-74
2021/06/10 04:57:25;;;;;;;10.60;7.58;;;;;;;17.31;85.07;98938.55;1746885;81;21731;-72
2021/06/10 04:59:51;;;;;;;7.87;7.05;;;;;;;17.37;84.82;98946.18;1754305;81;20969;-75
2021/06/10 05:02:19;;;;;;;12.03;6.90;;;;;;;17.42;84.44;98942.25;1753085;81;21058;-72
2021/06/10 05:04:45;;;;;;;13.10;7.25;;;;;;;17.46;83.99;98945.88;1754498;81;21482;-71
2021/06/10 05:07:12;;;;;;;8.73;6.80;;;;;;;17.51;83.83;98947.52;1752446;81;21051;-71
2021/06/10 05:09:41;;;;;;;8.35;5.95;;;;;;;17.53;83.08;98943.77;1747090;81;21156;-71
2021/06/10 05:12:10;;;;;;;8.03;6.75;;;;;;;17.52;82.64;98944.93;1742787;81;21030;-72
2021/06/10 05:14:37;;;;;;;6.40;5.62;;;;;;;17.53;82.92;98942.37;1746984;81;20987;-72
2021/06/10 05:17:04;;;;;;;7.80;6.45;;;;;;;17.58;82.64;98946.79;1749392;81;20996;-72
2021/06/10 05:19:34;;;;;;;8.05;5.75;;;;;;;17.61;82.77;98950.20;1740322;81;22068;-71
2021/06/10 05:22:05;;;;;;;7.17;6.40;;;;;;;17.70;82.68;98947.92;1744330;81;21050;-72
2021/06/10 05:27:55;;;;;;;7.37;6.62;;;;;;;17.90;82.16;98949.09;1737388;80;21047;-74
2021/06/10 05:30:22;;;;;;;7.92;5.85;;;;;;;18.01;82.12;98949.20;1742952;81;20980;-73
2021/06/10 05:32:49;;;;;;;10.85;7.45;;;;;;;18.08;80.95;98947.06;1747211;81;21091;-73
2021/06/10 05:35:18;;;;;;;10.63;6.42;;;;;;;18.13;80.85;98941.94;1742945;81;21133;-72
2021/06/10 05:37:46;;;;;;;7.90;5.83;;;;;;;18.22;81.22;98945.80;1724946;82;20996;-74
2021/06/10 05:40:14;;;;;;;7.05;5.30;;;;;;;18.30;80.03;98936.10;1722520;82;21115;-73
2021/06/10 05:42:45;;;;;;;9.53;5.55;;;;;;;18.41;79.83;98939.76;1723578;82;21485;-73
2021/06/10 05:45:14;;;;;;;6.03;5.20;;;;;;;18.54;79.56;98945.03;1730158;82;21634;-73
2021/06/10 05:47:41;;;;;;;7.33;5.08;;;;;;;18.64;79.83;98944.30;1735569;82;21132;-73
2021/06/10 05:50:08;;;;;;;9.45;5.03;;;;;;;18.78;78.55;98944.17;1734608;82;21016;-73
2021/06/10 05:52:35;;;;;;;6.83;5.25;;;;;;;18.83;77.88;98943.80;1733024;82;21067;-73
2021/06/10 05:55:06;;;;;;;9.33;6.30;;;;;;;18.81;76.56;98946.18;1710644;82;21060;-73
2021/06/10 05:57:36;;;;;;;10.70;5.70;;;;;;;18.73;75.87;98948.14;1734958;82;21134;-73
2021/06/10 06:00:08;;;;;;;13.35;6.05;;;;;;;18.65;75.84;98947.28;1730055;82;21078;-74
2021/06/10 06:02:40;;;;;;;7.90;4.92;;;;;;;18.63;76.57;98953.06;1733369;82;21013;-73
2021/06/10 06:05:13;;;;;;;11.83;5.50;;;;;;;18.66;77.18;98953.67;1733604;82;21064;-72
2021/06/10 06:07:43;;;;;;;7.42;4.58;;;;;;;18.68;77.11;98949.91;1735098;82;21080;-73
2021/06/10 06:10:11;;;;;;;7.97;6.05;;;;;;;18.72;77.40;98951.52;1735715;82;21016;-73
2021/06/10 06:12:42;;;;;;;10.13;5.55;;;;;;;18.76;76.50;98950.14;1721335;82;21462;-72
2021/06/10 06:15:14;;;;;;;7.97;5.22;;;;;;;18.78;75.83;98949.14;1735502;82;21483;-74
2021/06/10 06:17:46;;;;;;;9.78;5.50;;;;;;;18.85;76.44;98955.38;1731301;82;21039;-72
2021/06/10 06:20:19;;;;;;;8.28;4.45;;;;;;;18.91;74.95;98953.81;1735460;82;21105;-73
2021/06/10 06:22:45;;;;;;;4.42;3.85;;;;;;;18.93;74.18;98953.41;1734865;81;21102;-73
2021/06/10 06:25:16;;;;;;;4.42;4.00;;;;;;;18.95;74.59;98951.82;1753963;81;21158;-74
2021/06/10 06:27:45;;;;;;;14.73;4.08;;;;;;;19.00;74.08;98948.46;1754131;81;21004;-72
2021/06/10 06:30:12;;;;;;;6.80;4.08;;;;;;;19.06;74.01;98953.27;1739195;81;21000;-72
2021/06/10 06:32:45;;;;;;;7.00;4.25;;;;;;;19.19;72.82;98953.75;1734603;82;21047;-73
2021/06/10 06:35:12;;;;;;;8.85;4.40;;;;;;;19.36;72.11;98944.45;1735247;82;21040;-72
2021/06/10 06:37:43;;;;;;;8.80;3.83;;;;;;;19.52;71.15;98947.46;1731095;81;21020;-72
2021/06/10 06:40:17;;;;;;;4.95;3.90;;;;;;;19.64;71.47;98942.91;1734778;82;21009;-73
2021/06/10 06:42:43;;;;;;;10.88;3.85;;;;;;;19.72;69.88;98940.14;1734830;82;21563;-72
2021/06/10 06:45:10;;;;;;;4.60;3.30;;;;;;;19.81;70.70;98947.52;1734968;82;21033;-72
2021/06/10 06:47:41;;;;;;;6.67;3.42;;;;;;;19.90;67.04;98943.75;1734679;82;21035;-72
2021/06/10 06:50:10;;;;;;;7.55;3.90;;;;;;;19.85;67.29;98942.74;1735286;82;21895;-72
2021/06/10 06:52:37;;;;;;;5.42;3.95;;;;;;;19.75;66.58;98939.34;1734631;82;21078;-71
2021/06/10 06:55:09;;;;;;;10.40;3.90;;;;;;;19.74;67.80;98939.15;1734940;82;21016;-73
2021/06/10 06:57:38;;;;;;;;;;;;;;;19.87;67.35;98947.34;1735898;82;21015;-73
2021/06/10 07:00:09;;;;;;;5.17;3.77;;;;;;;20.01;65.42;98942.34;1730719;81;20237;-73
2021/06/10 07:02:35;;;;;;;4.75;3.72;;;;;;;20.14;64.95;98948.38;1733364;82;21687;-72
2021/06/10 07:05:10;;;;;;;7.03;3.40;;;;;;;20.27;66.38;98946.56;1734801;82;21093;-72
2021/06/10 07:07:40;;;;;;;4.75;3.22;;;;;;;20.43;66.63;98950.35;1735190;81;21068;-73
2021/06/10 07:10:09;;;;;;;3.65;3.35;;;;;;;20.56;66.17;98950.72;1712186;82;21004;-75
2021/06/10 07:12:35;;;;;;;7.28;3.17;;;;;;;20.63;65.55;98946.52;1735022;82;21048;-74
2021/06/10 07:15:07;;;;;;;3.30;3.00;;;;;;;20.73;64.25;98951.89;1734784;81;22284;-73
2021/06/10 07:17:35;;;;;;;5.47;3.90;;;;;;;20.75;63.78;98945.88;1735137;82;21166;-73
2021/06/10 07:20:05;;;;;;;4.25;3.12;;;;;;;20.74;63.39;98947.09;1735628;81;21020;-75
2021/06/10 07:22:37;;;;;;;7.20;3.62;;;;;;;20.63;63.31;98954.91;1735073;82;20989;-72
2021/06/10 07:25:20;;;;;;;3.75;3.42;;;;;;;20.54;63.68;98951.13;1703385;82;21004;-73
2021/06/10 07:28:04;;;;;;;4.55;3.05;;;;;;;20.48;64.87;98958.93;1720791;82;21020;-72
2021/06/10 07:30:32;;;;;;;5.28;3.70;;;;;;;20.39;63.32;98951.75;1712743;82;21028;-72
2021/06/10 07:33:00;;;;;;;8.98;3.80;;;;;;;20.37;64.78;98949.95;1735479;82;21039;-73
2021/06/10 07:35:30;;;;;;;4.67;3.42;;;;;;;20.52;65.20;98948.55;1712156;81;21032;-73
2021/06/10 07:37:57;;;;;;;8.33;3.55;;;;;;;20.64;64.69;98957.90;1756095;80;21050;-72
2021/06/10 07:40:27;;;;;;;5.97;3.65;;;;;;;20.71;63.62;98954.28;1745950;81;21149;-72
2021/06/10 07:42:58;;;;;;;10.80;4.72;;;;;;;20.70;63.92;98947.10;1754307;81;21027;-73
2021/06/10 07:45:29;;;;;;;7.40;4.35;;;;;;;20.77;65.05;98955.48;1753319;81;21074;-74
2021/06/10 07:47:59;;;;;;;5.75;4.35;;;;;;;20.89;65.25;98950.06;1768153;81;21529;-73
2021/06/10 07:50:28;;;;;;;5.67;4.72;;;;;;;21.01;64.65;98950.84;1755996;81;21498;-73
2021/06/10 07:53:00;;;;;;;5.65;4.40;;;;;;;21.07;64.62;98955.43;1751421;80;21034;-73
2021/06/10 07:55:30;;;;;;;6.92;3.58;;;;;;;21.01;63.88;98955.84;1757506;80;21487;-75
2021/06/10 07:58:03;;;;;;;5.95;3.85;;;;;;;20.97;65.39;98954.24;1766615;81;21026;-73
2021/06/10 08:00:27;;;;;;;5.45;4.22;;;;;;;21.07;65.18;98961.03;1758397;80;21504;-72
2021/06/10 08:02:59;;;;;;;5.30;3.80;;;;;;;21.04;63.09;98959.23;1761371;81;21027;-73
2021/06/10 08:05:26;;;;;;;6.10;3.75;;;;;;;20.95;63.64;98955.27;1754361;81;21499;-73
2021/06/10 08:07:59;;;;;;;3.85;3.55;;;;;;;21.06;65.37;98958.82;1716153;82;21062;-72
2021/06/10 08:10:28;;;;;;;5.50;3.40;;;;;;;21.17;64.91;98954.59;1755464;81;21055;-73
2021/06/10 08:13:01;;;;;;;6.53;3.45;;;;;;;21.24;64.46;98957.97;1759173;81;21095;-73
2021/06/10 08:15:31;;;;;;;6.78;3.42;;;;;;;21.16;64.28;98956.59;1759104;81;21082;-73
2021/06/10 08:18:03;;;;;;;3.80;2.90;;;;;;;21.08;63.75;98951.41;1756091;81;21589;-73
2021/06/10 08:20:30;;;;;;;5.10;3.47;;;;;;;21.11;64.46;98950.59;1759031;81;21047;-72
2021/06/10 08:23:03;;;;;;;5.42;3.00;;;;;;;21.24;64.04;98950.96;1759149;81;21066;-73
2021/06/10 08:25:34;;;;;;;6.03;3.65;;;;;;;21.32;64.26;98951.12;1758120;81;21575;-72
2021/06/10 08:28:04;;;;;;;8.70;4.03;;;;;;;21.34;64.12;98950.70;1759242;81;21016;-71
2021/06/10 08:30:32;;;;;;;3.77;3.35;;;;;;;21.25;63.99;98949.74;1759281;81;21059;-73
2021/06/10 08:32:58;;;;;;;7.87;4.62;;;;;;;21.16;64.37;98940.38;1730022;81;21063;-71
2021/06/10 08:35:32;;;;;;;6.75;4.47;;;;;;;21.02;63.73;98949.03;1730077;81;20991;-72
2021/06/10 08:38:00;;;;;;;4.70;3.27;;;;;;;20.75;63.49;98950.89;1745881;80;21604;-72
2021/06/10 08:40:28;;;;;;;4.50;3.55;;;;;;;20.55;64.25;98948.55;1743529;82;21000;-73
2021/06/10 08:42:58;;;;;;;5.65;3.65;;;;;;;20.42;63.43;98946.75;1736791;82;21039;-73
2021/06/10 08:45:28;;;;;;;6.95;4.08;;;;;;;20.25;64.08;98954.58;1743309;82;21586;-72
2021/06/10 08:47:54;;;;;;;6.85;4.42;;;;;;;20.17;65.01;98948.17;1743623;82;21551;-72
2021/06/10 08:50:23;;;;;;;5.08;4.30;;;;;;;20.13;65.93;98945.37;1738585;82;21035;-73
2021/06/10 08:52:57;;;;;;;6.70;3.67;;;;;;;20.13;66.98;98946.77;1737233;81;21056;-74
2021/06/10 08:55:25;;;;;;;10.28;4.47;;;;;;;20.14;66.47;98949.78;1735328;82;21098;-73
2021/06/10 08:57:51;;;;;;;8.18;4.33;;;;;;;20.16;67.20;98947.36;1735506;82;21313;-72
2021/06/10 09:00:25;;;;;;;6.20;4.08;;;;;;;20.21;66.92;98955.97;1735133;82;21039;-73
2021/06/10 09:02:54;;;;;;;;;;;;;;;20.26;66.23;98946.38;1738394;82;21035;-73
2021/06/10 09:05:24;;;;;;;6.20;4.00;;;;;;;20.26;65.55;98945.78;1711789;82;20222;-74
2021/06/10 09:07:57;;;;;;;5.80;4.17;;;;;;;20.30;65.75;98943.77;1735577;82;21175;-73
2021/06/10 09:10:31;;;;;;;8.80;4.60;;;;;;;20.32;64.65;98944.76;1732934;81;21525;-73
2021/06/10 09:13:09;;;;;;;13.72;4.40;;;;;;;20.37;64.66;98936.58;1734643;82;21096;-74
2021/06/10 09:16:05;;;;;;;5.60;3.50;;;;;;;20.45;65.53;98933.16;1683243;82;21699;-74
2021/06/10 09:18:32;;;;;;;7.90;3.77;;;;;;;20.62;66.00;98932.94;1708191;82;21060;-72
2021/06/10 09:21:01;;;;;;;12.82;4.08;;;;;;;20.68;64.67;98929.32;1664346;82;21509;-74
2021/06/10 09:23:32;;;;;;;7.80;4.20;;;;;;;20.65;63.73;98927.92;1731439;82;21033;-73
2021/06/10 09:26:07;;;;;;;6.83;3.80;;;;;;;20.60;64.17;98932.53;1712678;82;21087;-74
2021/06/10 09:28:42;;;;;;;19.00;6.25;;;;;;;20.55;65.22;98940.16;1713249;82;20985;-74
2021/06/10 09:31:10;;;;;;;15.20;5.40;;;;;;;20.47;67.09;98948.33;1733080;82;20968;-75
2021/06/10 09:33:42;;;;;;;20.00;6.00;;;;;;;20.37;68.06;98940.16;1735565;82;21155;-74
2021/06/10 09:36:16;;;;;;;5.37;4.75;;;;;;;20.28;69.87;98936.98;1734929;82;21043;-75
2021/06/10 09:39:07;;;;;;;10.20;4.72;;;;;;;20.01;70.98;98933.17;1734972;82;21076;-74
2021/06/10 09:41:55;;;;;;;6.17;4.03;;;;;;;19.76;72.24;98935.34;1734877;82;21135;-73
2021/06/10 09:44:59;;;;;;;5.92;4.75;;;;;;;19.69;73.59;98936.93;1711157;82;21124;-73
2021/06/10 09:47:37;;;;;;;11.18;4.62;;;;;;;19.68;75.03;98933.95;1734834;81;21133;-76
2021/06/10 09:50:18;;;;;;;6.83;4.55;;;;;;;19.71;75.97;98939.33;1735475;82;21521;-75
2021/06/10 09:52:54;;;;;;;6.15;4.60;;;;;;;19.75;76.23;98938.75;1735512;82;21024;-75
2021/06/10 09:55:42;;;;;;;12.68;4.97;;;;;;;19.76;76.02;98948.72;1732068;82;21040;-78
2021/06/10 09:58:17;;;;;;;7.33;5.03;;;;;;;19.66;75.64;98949.49;1734691;82;20977;-74
2021/06/10 10:00:50;;;;;;;12.88;6.00;;;;;;;19.50;75.93;98947.86;1735524;82;22354;-76
2021/06/10 10:03:29;;;;;;;8.10;4.87;;;;;;;19.48;76.90;98953.66;1735586;82;21047;-75
2021/06/10 10:06:05;;;;;;;5.78;4.17;;;;;;;19.40;77.73;98950.83;1729800;82;21016;-74
2021/06/10 10:08:35;;;;;;;7.62;3.75;;;;;;;19.36;77.15;98955.63;1728932;82;21036;-75
2021/06/10 10:11:03;;;;;;;7.10;3.92;;;;;;;19.39;76.75;98959.02;1735790;82;21537;-74
2021/06/10 10:13:31;;;;;;;6.12;3.95;;;;;;;19.37;76.03;98957.21;1710210;82;21060;-75
2021/06/10 10:16:00;;;;;;;5.40;3.98;;;;;;;19.29;76.46;98955.59;1735528;82;21040;-73
2021/06/10 10:18:34;;;;;;;9.25;4.83;;;;;;;19.18;76.85;98952.16;1731989;82;21064;-73
2021/06/10 10:21:03;;;;;;;6.28;5.05;;;;;;;19.12;77.54;98950.95;1734896;82;21134;-75
2021/06/10 10:23:38;;;;;;;12.55;5.70;;;;;;;19.04;77.92;98939.52;1735326;82;21559;-74
2021/06/10 10:26:07;;;;;;;10.35;5.15;;;;;;;18.94;78.53;98930.70;1734570;82;22021;-74
2021/06/10 10:28:38;;;;;;;7.33;5.72;;;;;;;18.80;79.23;98923.66;1731158;82;21032;-74
2021/06/10 10:31:10;;;;;;;8.03;5.67;;;;;;;18.74;80.09;98927.41;1711914;82;22185;-76
2021/06/10 10:33:48;;;;;;;10.08;6.12;;;;;;;18.70;80.50;98919.02;1734321;81;21084;-72
2021/06/10 10:36:30;;;;;;;7.40;5.97;;;;;;;18.72;81.01;98917.23;1734905;82;21075;-74
2021/06/10 10:39:09;;;;;;;11.68;7.90;;;;;;;18.73;81.67;98918.23;1699769;81;21510;-77
2021/06/10 10:41:58;;;;;;;;;;;;;;;18.81;82.31;98910.72;1737406;82;21035;-73
2021/06/10 10:44:30;;;;;;;8.20;6.12;;;;;;;18.90;82.76;98915.91;1735134;82;20199;-74
2021/06/10 10:47:11;;;;;;;9.20;6.22;;;;;;;18.92;82.12;98916.33;1735132;82;21005;-75
2021/06/10 10:49:46;;;;;;;7.85;5.72;;;;;;;18.91;81.15;98915.33;1735214;82;20992;-78
2021/06/10 10:52:27;;;;;;;9.93;6.30;;;;;;;18.86;80.10;98913.72;1733105;81;21591;-75
2021/06/10 10:54:53;;;;;;;10.55;5.80;;;;;;;18.86;80.29;98917.91;1732877;81;21028;-74
2021/06/10 10:57:45;;;;;;;8.83;6.05;;;;;;;18.92;80.72;98921.13;1733278;82;21098;-74
2021/06/10 11:00:21;;;;;;;10.88;5.25;;;;;;;19.05;81.07;98927.16;1734750;82;21040;-74
2021/06/10 11:02:51;;;;;;;6.22;5.58;;;;;;;19.27;80.70;98928.65;1734947;82;20988;-74
2021/06/10 11:05:34;;;;;;;9.10;5.78;;;;;;;19.48;80.64;98924.33;1708834;82;21167;-73
2021/06/10 11:08:03;;;;;;;9.93;5.75;;;;;;;19.74;81.17;98927.97;1734619;81;21048;-73
2021/06/10 11:10:51;;;;;;;7.20;5.78;;;;;;;20.01;80.29;98918.58;1735202;82;21049;-75
2021/06/10 11:13:29;;;;;;;10.20;5.83;;;;;;;20.29;79.51;98921.20;1731736;82;21000;-73
2021/06/10 11:16:03;;;;;;;7.58;5.45;;;;;;;20.59;79.36;98916.34;1729831;81;21095;-72
2021/06/10 11:18:52;;;;;;;6.67;5.03;;;;;;;20.91;79.19;98916.05;1734380;82;21090;-74
2021/06/10 11:21:44;;;;;;;11.45;5.08;;;;;;;21.16;77.57;98908.98;1731409;82;21180;-73
2021/06/10 11:24:14;;;;;;;5.92;4.47;;;;;;;21.25;72.40;98910.53;1735142;82;21452;-78
2021/06/10 11:26:52;;;;;;;6.35;4.87;;;;;;;21.13;70.44;98903.39;1734818;82;21489;-74
2021/06/10 11:29:21;;;;;;;5.20;4.28;;;;;;;21.04;71.03;98911.63;1711649;82;21036;-74
2021/06/10 11:32:26;;;;;;;3.98;3.58;;;;;;;20.98;71.14;98906.27;1734637;82;21204;-76
2021/06/10 11:34:54;;;;;;;7.50;3.92;;;;;;;20.99;71.09;98904.25;1734845;82;21180;-74
2021/06/10 11:37:26;;;;;;;6.45;3.75;;;;;;;20.91;71.30;98902.06;1732023;80;21035;-73
2021/06/10 11:39:57;;;;;;;4.20;3.60;;;;;;;20.80;68.53;98906.28;1733325;82;21009;-74
2021/06/10 11:42:32;;;;;;;5.87;3.80;;;;;;;20.64;68.51;98900.53;1734288;82;21081;-73
2021/06/10 11:45:00;;;;;;;4.53;4.12;;;;;;;20.62;68.69;98905.76;1734946;82;21508;-73
2021/06/10 11:47:35;;;;;;;4.62;4.10;;;;;;;20.70;70.41;98908.52;1732024;81;21083;-72
2021/06/10 11:49:59;;;;;;;25.12;5.87;;;;;;;20.88;70.50;98905.05;1734648;82;21012;-73
2021/06/10 11:52:52;;;;;;;6.22;3.60;;;;;;;21.08;70.00;98911.62;1734790;82;21028;-74